METAR rapporten vliegvelden

   
EBAW - Antwerp
Gewijzigd: 23-08-2019 19:50
Helder  
Helder  
   Wind: ONO 7.4 km/h
Wind: ONO 7.4 km/h
Temperatuur: 25°C
Dauwpunt: 12°C
Vochtigheid: 44%
Barometer: 1023 hPa
Zicht: meer dan 10 km
Bewolking: Helder
EBAW 231750Z 06004KT 040V100 CAVOK 25/12 Q1023 NOSIG
EBLG - Li├Ęge
Gewijzigd: 23-08-2019 19:50
Helder  
Helder  
   Wind: NNO 11.1 km/h
Wind: NNO 11.1 km/h
Temperatuur: 23°C
Dauwpunt: 12°C
Vochtigheid: 50%
Barometer: 1023 hPa
Zicht: meer dan 10 km
Bewolking: Helder
EBLG 231750Z 03006KT CAVOK 23/12 Q1023 NOSIG
EBCV - Mons/Bergen
Gewijzigd: 23-08-2019 19:55
Helder  
Helder  
   Wind: NO 11.1 km/h
Wind: NO 11.1 km/h
Temperatuur: 25°C
Dauwpunt: 13°C
Vochtigheid: 47%
Barometer: 1022 hPa
Bewolking: Helder
Zicht: meer dan 10 km
Bewolking: Helder
EBCV 231755Z AUTO 05006KT 9999 NCD 25/13 Q1022 BLU
EHBK - Maastricht
Gewijzigd: 23-08-2019 19:55
Gedeeltelijk bewolkt  
Gedeeltelijk bewolkt  
   Wind: NO 11.1 km/h
Wind: NO 11.1 km/h
Temperatuur: 23°C
Dauwpunt: 12°C
Vochtigheid: 50%
Barometer: 1022 hPa
Bewolking: Gedeeltelijk bewolkt
Zicht: meer dan 10 km
Bewolking: Gedeeltelijk bewolkt
EHBK 231755Z AUTO 04006KT 9999 NSC 23/12 Q1022 NOSIG
ELLX - Luxemburg
Gewijzigd: 23-08-2019 19:50
Helder  
Helder  
   Wind: ONO 13 km/h
Wind: ONO 13 km/h
Temperatuur: 25°C
Dauwpunt: 9°C
Vochtigheid: 36%
Barometer: 1023 hPa
Zicht: meer dan 10 km
Bewolking: Helder
ELLX 231750Z 07007KT CAVOK 25/09 Q1023 NOSIG
EBOS - Oostende
Gewijzigd: 23-08-2019 19:50
Helder  
Helder  
   Wind: NO 14.8 km/h
Wind: NO 14.8 km/h
Temperatuur: 21°C
Dauwpunt: 14°C
Vochtigheid: 64%
Barometer: 1023 hPa
Zicht: meer dan 10 km
Bewolking: Helder
EBOS 231750Z 05008KT CAVOK 21/14 Q1023 NOSIG

Script ontwikkeld door  Saratoga-weather.org Aangepast voor de template door  Weerstation Leuven